Time;durP1;ratioP1;P1;durP2;ratioP2;P2;SDS_P1;SDS_P2;PMS_P1;PMS_P2;Temp;Humidity;BMP_temperature;BMP_pressure;BME280_temperature;BME280_humidity;BME280_pressure;Samples;Min_cycle;Max_cycle;Signal;HPM_P1;HPM_P2
2023/06/14 00:00:09;;;;;;;;;;;;;;;23.21;34.75;95200.16;10302601;28;1965;-66
2023/06/14 00:05:11;;;;;;;;;;;;;;;23.21;34.61;95205.44;10301857;28;2338;-65
2023/06/14 00:10:12;;;;;;;;;;;;;;;23.20;34.41;95203.91;10297464;28;1916;-65
2023/06/14 00:15:12;;;;;;;;;;;;;;;23.20;34.55;95195.97;10300110;28;2066;-65
2023/06/14 00:20:12;;;;;;;;;;;;;;;23.21;34.90;95197.53;10297505;28;2018;-65
2023/06/14 00:25:13;;;;;;;;;;;;;;;23.21;34.68;95200.94;10300657;28;2008;-66
2023/06/14 00:30:13;;;;;;;;;;;;;;;23.21;35.11;95189.59;10303160;28;1843;-66
2023/06/14 00:35:13;;;;;;;;;;;;;;;23.21;35.16;95190.38;10300160;28;1965;-66
2023/06/14 00:40:14;;;;;;;;;;;;;;;23.22;35.16;95196.44;10290244;28;4554;-65
2023/06/14 00:45:14;;;;;;;;;;;;;;;23.22;34.90;95193.81;10315777;28;2112;-65
2023/06/14 00:50:14;;;;;;;;;;;;;;;23.21;34.89;95193.03;10299594;28;2062;-63
2023/06/14 00:55:15;;;;;;;;;;;;;;;23.20;34.82;95190.69;10301049;28;2011;-65
2023/06/14 01:00:15;;;;;;;;;;;;;;;23.19;34.86;95197.03;10298598;28;2356;-65
2023/06/14 01:05:15;;;;;;;;;;;;;;;23.17;34.90;95194.72;10299423;28;2180;-65
2023/06/14 01:10:15;;;;;;;;;;;;;;;23.17;34.96;95194.72;10291336;28;1964;-65
2023/06/14 01:15:16;;;;;;;;;;;;;;;23.17;34.97;95191.28;10284947;28;1967;-65
2023/06/14 01:20:17;;;;;;;;;;;;;;;23.16;34.86;95192.38;10286654;28;1989;-65
2023/06/14 01:25:20;;;;;;;;;;;;;;;23.16;34.91;95193.13;10289273;28;1997;-65
2023/06/14 01:30:21;;;;;;;;;;;;;;;23.17;34.94;95188.63;10318462;28;1924;-65
2023/06/14 01:35:21;;;;;;;;;;;;;;;23.15;34.96;95183.66;10304154;28;1974;-64
2023/06/14 01:40:21;;;;;;;;;;;;;;;23.16;35.13;95181.81;10294161;28;4337;-65
2023/06/14 01:45:22;;;;;;;;;;;;;;;23.16;35.00;95179.16;10303480;28;2051;-65
2023/06/14 01:50:22;;;;;;;;;;;;;;;23.15;35.46;95180.22;10298274;28;2060;-65
2023/06/14 01:55:24;;;;;;;;;;;;;;;23.15;35.12;95169.66;10309696;28;2214;-64
2023/06/14 02:00:25;;;;;;;;;;;;;;;23.14;35.16;95176.03;10304601;28;1996;-65
2023/06/14 02:05:26;;;;;;;;;;;;;;;23.12;35.23;95175.56;10297250;28;1967;-65
2023/06/14 02:10:26;;;;;;;;;;;;;;;23.11;35.17;95166.84;10301793;28;1972;-65
2023/06/14 02:15:33;;;;;;;;;;;;;;;23.11;35.09;95173.97;10300509;28;2009;-65
2023/06/14 02:20:33;;;;;;;;;;;;;;;23.10;35.23;95177.72;10303717;28;1978;-65
2023/06/14 02:25:34;;;;;;;;;;;;;;;23.09;35.02;95166.38;10308007;28;1979;-65
2023/06/14 02:30:34;;;;;;;;;;;;;;;23.09;35.25;95171.66;10295412;28;1955;-65
2023/06/14 02:35:35;;;;;;;;;;;;;;;23.07;35.19;95171.19;10307810;28;1914;-66
2023/06/14 02:40:35;;;;;;;;;;;;;;;23.07;35.22;95173.03;10304442;28;1941;-65
2023/06/14 02:45:36;;;;;;;;;;;;;;;23.06;35.04;95179.41;10301397;28;2154;-66
2023/06/14 02:50:37;;;;;;;;;;;;;;;23.05;35.06;95185.78;10305694;28;2269;-65
2023/06/14 02:55:39;;;;;;;;;;;;;;;23.05;35.15;95180.47;10299418;28;1985;-64
2023/06/14 03:00:40;;;;;;;;;;;;;;;23.04;35.17;95178.94;10308161;28;2343;-65
2023/06/14 03:05:45;;;;;;;;;;;;;;;23.02;35.26;95178.47;10304740;28;2228;-66
2023/06/14 03:10:46;;;;;;;;;;;;;;;23.02;34.92;95181.09;10295268;28;2016;-65
2023/06/14 03:15:47;;;;;;;;;;;;;;;23.01;35.29;95185.59;10305060;28;2259;-66
2023/06/14 03:20:47;;;;;;;;;;;;;;;23.00;34.88;95199.88;10303154;28;1981;-66
2023/06/14 03:25:47;;;;;;;;;;;;;;;22.99;34.98;95194.91;10301433;28;1982;-65
2023/06/14 03:30:48;;;;;;;;;;;;;;;22.98;35.07;95193.38;10304172;28;2157;-65
2023/06/14 03:35:49;;;;;;;;;;;;;;;22.96;35.06;95201.56;10302897;28;2025;-66
2023/06/14 03:40:49;;;;;;;;;;;;;;;22.96;34.76;95195.50;10303307;28;4531;-65
2023/06/14 03:45:50;;;;;;;;;;;;;;;22.95;34.90;95205.31;10296683;28;2026;-66
2023/06/14 03:50:50;;;;;;;;;;;;;;;22.95;34.93;95200.03;10298254;28;2030;-66
2023/06/14 03:55:52;;;;;;;;;;;;;;;22.94;34.83;95205.59;10302047;28;1998;-66
2023/06/14 04:00:52;;;;;;;;;;;;;;;22.93;34.83;95223.34;10298011;28;2265;-65
2023/06/14 04:05:56;;;;;;;;;;;;;;;22.90;34.51;95231.06;10305090;28;1979;-65
2023/06/14 04:10:56;;;;;;;;;;;;;;;22.91;34.75;95232.63;10282857;28;2000;-68
2023/06/14 04:15:57;;;;;;;;;;;;;;;22.89;34.68;95245.38;10301794;28;2305;-65
2023/06/14 04:20:57;;;;;;;;;;;;;;;22.88;34.49;95254.38;10297139;28;2089;-65
2023/06/14 04:26:02;;;;;;;;;;;;;;;22.88;34.56;95244.59;10294332;28;2017;-65
2023/06/14 04:31:02;;;;;;;;;;;;;;;22.89;34.59;95250.66;10299522;28;2185;-66
2023/06/14 04:36:03;;;;;;;;;;;;;;;22.89;34.77;95255.94;10295976;28;1949;-65
2023/06/14 04:41:04;;;;;;;;;;;;;;;22.90;34.84;95260.13;10296348;28;4591;-65
2023/06/14 04:46:05;;;;;;;;;;;;;;;22.92;34.83;95261.41;10302507;28;2348;-65
2023/06/14 04:51:05;;;;;;;;;;;;;;;22.92;35.05;95256.13;10299609;28;2028;-65
2023/06/14 04:56:07;;;;;;;;;;;;;;;22.93;35.05;95262.97;10298595;28;1941;-65
2023/06/14 05:01:09;;;;;;;;;;;;;;;22.96;34.97;95262.38;10309755;28;2101;-63
2023/06/14 05:06:09;;;;;;;;;;;;;;;22.98;34.99;95275.31;10323707;28;1970;-67
2023/06/14 05:11:10;;;;;;;;;;;;;;;22.99;34.81;95271.56;10309476;28;2007;-66
2023/06/14 05:16:11;;;;;;;;;;;;;;;22.96;35.07;95278.22;10308861;28;2004;-65
2023/06/14 05:21:11;;;;;;;;;;;;;;;22.90;34.78;95284.72;10308495;28;1916;-67
2023/06/14 05:26:11;;;;;;;;;;;;;;;22.75;33.91;95294.84;10307307;28;2060;-66
2023/06/14 05:31:11;;;;;;;;;;;;;;;22.71;33.96;95294.63;10307637;28;2095;-67
2023/06/14 05:36:12;;;;;;;;;;;;;;;22.57;34.00;95294.66;10305523;28;1984;-67
2023/06/14 05:41:12;;;;;;;;;;;;;;;22.46;33.73;95297.81;10310009;28;4472;-67
2023/06/14 05:46:12;;;;;;;;;;;;;;;22.35;33.41;95293.81;10306127;28;2053;-67
2023/06/14 05:51:13;;;;;;;;;;;;;;;22.33;33.51;95293.31;10289621;28;1982;-66
2023/06/14 05:56:17;;;;;;;;;;;;;;;22.26;33.37;95299.00;10308909;28;2010;-66
2023/06/14 06:01:17;;;;;;;;;;;;;;;22.31;33.31;95298.13;10307571;28;1987;-66
2023/06/14 06:06:18;;;;;;;;;;;;;;;22.33;33.40;95294.13;10314015;28;1928;-66
2023/06/14 06:11:18;;;;;;;;;;;;;;;22.31;33.58;95300.75;10306150;28;1976;-67
2023/06/14 06:16:18;;;;;;;;;;;;;;;22.27;33.38;95303.22;10306886;28;2035;-66
2023/06/14 06:21:19;;;;;;;;;;;;;;;22.27;33.16;95305.06;10303509;28;1889;-66
2023/06/14 06:26:19;;;;;;;;;;;;;;;22.29;33.40;95316.13;10305808;28;2008;-66
2023/06/14 06:31:19;;;;;;;;;;;;;;;22.34;33.58;95323.94;10303000;28;1957;-66
2023/06/14 06:36:21;;;;;;;;;;;;;;;22.36;33.43;95327.84;10300251;28;2268;-66
2023/06/14 06:41:21;;;;;;;;;;;;;;;22.41;33.75;95325.09;10303222;28;4257;-66
2023/06/14 06:46:21;;;;;;;;;;;;;;;22.42;33.52;95325.91;10282806;28;1954;-65
2023/06/14 06:51:22;;;;;;;;;;;;;;;22.42;33.67;95329.28;10302270;28;2023;-67
2023/06/14 06:56:23;;;;;;;;;;;;;;;22.41;33.25;95327.75;10301476;28;1981;-64
2023/06/14 07:01:24;;;;;;;;;;;;;;;22.43;33.31;95333.50;10306862;28;1924;-61
2023/06/14 07:06:27;;;;;;;;;;;;;;;22.45;33.60;95334.00;10299894;28;1971;-65
2023/06/14 07:11:27;;;;;;;;;;;;;;;22.48;33.44;95324.72;10299614;28;1981;-65
2023/06/14 07:16:27;;;;;;;;;;;;;;;22.50;33.47;95330.47;10302131;28;1906;-65
2023/06/14 07:21:27;;;;;;;;;;;;;;;22.50;33.54;95344.44;10302508;28;1966;-65
2023/06/14 07:26:28;;;;;;;;;;;;;;;22.51;33.61;95350.53;10311959;28;2002;-64
2023/06/14 07:31:28;;;;;;;;;;;;;;;22.50;33.46;95341.81;10298154;28;1980;-64
2023/06/14 07:36:28;;;;;;;;;;;;;;;22.50;33.40;95352.38;10298630;28;2355;-64
2023/06/14 07:41:29;;;;;;;;;;;;;;;22.51;33.46;95350.53;10300918;28;4584;-65
2023/06/14 07:46:29;;;;;;;;;;;;;;;22.52;33.36;95352.84;10304729;28;1902;-64
2023/06/14 07:51:30;;;;;;;;;;;;;;;22.50;33.34;95349.72;10304530;28;1882;-65
2023/06/14 07:56:30;;;;;;;;;;;;;;;22.53;33.06;95354.44;10301389;28;2310;-64
2023/06/14 08:01:30;;;;;;;;;;;;;;;22.54;33.49;95348.09;10301518;28;1986;-65
2023/06/14 08:06:31;;;;;;;;;;;;;;;22.57;33.10;95350.13;10303855;28;2029;-64
2023/06/14 08:11:31;;;;;;;;;;;;;;;22.58;33.29;95348.31;10300763;28;2075;-65
2023/06/14 08:16:31;;;;;;;;;;;;;;;22.58;33.26;95349.09;10298252;28;1929;-64
2023/06/14 08:21:33;;;;;;;;;;;;;;;22.60;33.02;95349.59;10296604;28;2112;-64
2023/06/14 08:26:33;;;;;;;;;;;;;;;22.59;32.90;95355.13;10297075;28;1958;-64
2023/06/14 08:31:34;;;;;;;;;;;;;;;22.57;32.87;95365.97;10296651;28;2278;-64
2023/06/14 08:36:35;;;;;;;;;;;;;;;22.55;32.71;95362.84;10301534;28;2144;-65
2023/06/14 08:41:35;;;;;;;;;;;;;;;22.54;32.27;95365.78;10299327;28;4551;-65
2023/06/14 08:46:36;;;;;;;;;;;;;;;22.56;32.54;95375.00;10299994;28;2007;-65
2023/06/14 08:51:36;;;;;;;;;;;;;;;22.55;32.26;95372.63;10304796;28;1950;-65
2023/06/14 08:56:37;;;;;;;;;;;;;;;22.57;32.28;95373.13;10299982;28;1941;-65
2023/06/14 09:01:38;;;;;;;;;;;;;;;22.57;32.06;95367.81;10301630;28;2188;-65
2023/06/14 09:06:38;;;;;;;;;;;;;;;22.53;31.94;95370.28;10296808;28;1930;-65
2023/06/14 09:11:41;;;;;;;;;;;;;;;22.53;31.71;95369.50;10300640;28;1953;-65
2023/06/14 09:16:41;;;;;;;;;;;;;;;22.51;31.36;95364.53;10298657;28;2118;-64
2023/06/14 09:21:42;;;;;;;;;;;;;;;22.51;31.66;95367.16;10301123;28;1929;-64
2023/06/14 09:26:42;;;;;;;;;;;;;;;22.52;31.76;95379.28;10300714;28;2406;-63
2023/06/14 09:31:42;;;;;;;;;;;;;;;22.53;31.75;95380.84;10298224;28;1950;-65
2023/06/14 09:36:42;;;;;;;;;;;;;;;22.54;31.50;95373.72;10291609;28;2038;-65
2023/06/14 09:41:43;;;;;;;;;;;;;;;22.59;31.70;95384.19;10283649;28;4519;-65
2023/06/14 09:46:43;;;;;;;;;;;;;;;22.61;31.97;95393.41;10303797;28;2053;-67
2023/06/14 09:51:44;;;;;;;;;;;;;;;22.60;32.05;95391.84;10306942;28;2332;-67
2023/06/14 09:56:45;;;;;;;;;;;;;;;22.58;31.85;95394.00;10303458;28;1966;-67
2023/06/14 10:01:45;;;;;;;;;;;;;;;22.59;31.93;95390.28;10306103;28;1942;-66
2023/06/14 10:06:45;;;;;;;;;;;;;;;22.60;31.93;95376.00;10294461;28;2025;-67
2023/06/14 10:11:46;;;;;;;;;;;;;;;22.60;31.96;95389.22;10309238;28;2012;-66
2023/06/14 10:16:52;;;;;;;;;;;;;;;22.60;31.97;95386.56;10286484;28;2166;-66
2023/06/14 10:22:10;;;;;;;;;;;;;;;22.61;32.05;95395.25;10293455;28;2329;-66
2023/06/14 10:27:10;;;;;;;;;;;;;;;22.60;32.00;95376.00;10286160;28;1980;-67
2023/06/14 10:32:11;;;;;;;;;;;;;;;22.62;31.95;95392.34;10294806;28;1943;-66
2023/06/14 10:37:11;;;;;;;;;;;;;;;22.65;32.16;95375.09;10309069;28;2041;-66
2023/06/14 10:42:12;;;;;;;;;;;;;;;22.66;32.16;95371.38;10304172;28;2089;-64
2023/06/14 10:47:28;;;;;;;;;;;;;;;22.67;32.01;95382.75;10299951;28;1926;-64
2023/06/14 10:52:29;;;;;;;;;;;;;;;22.66;32.06;95379.31;10303328;28;1990;-66
2023/06/14 10:57:31;;;;;;;;;;;;;;;22.67;31.95;95388.78;10298248;28;1877;-64
2023/06/14 11:02:37;;;;;;;;;;;;;;;22.67;31.78;95377.47;10299693;28;1535;-64
2023/06/14 11:07:53;;;;;;;;;;;;;;;22.67;31.88;95384.28;10310194;28;1952;-63
2023/06/14 11:12:53;;;;;;;;;;;;;;;22.67;31.53;95380.09;10300388;28;1952;-65
2023/06/14 11:17:53;;;;;;;;;;;;;;;22.66;31.35;95376.66;10313000;28;1988;-64
2023/06/14 11:22:54;;;;;;;;;;;;;;;22.65;31.00;95383.00;10290051;28;1953;-63
2023/06/14 11:27:55;;;;;;;;;;;;;;;22.63;30.87;95378.03;10300854;28;2333;-65
2023/06/14 11:32:55;;;;;;;;;;;;;;;22.62;30.62;95373.84;10304256;28;1963;-63
2023/06/14 11:37:58;;;;;;;;;;;;;;;22.61;30.60;95377.56;10303778;28;1958;-63
2023/06/14 11:42:59;;;;;;;;;;;;;;;22.62;30.44;95362.50;10302013;28;4512;-63
2023/06/14 11:48:00;;;;;;;;;;;;;;;22.62;30.59;95363.28;10287378;28;1956;-63
2023/06/14 11:53:06;;;;;;;;;;;;;;;22.64;30.81;95355.84;10295053;28;2017;-63
2023/06/14 11:58:07;;;;;;;;;;;;;;;22.67;30.94;95363.16;10295822;28;1954;-65
2023/06/14 12:03:07;;;;;;;;;;;;;;;22.67;31.08;95357.88;10286787;28;1938;-66
2023/06/14 12:08:07;;;;;;;;;;;;;;;22.71;30.86;95358.06;10294463;28;1989;-65
2023/06/14 12:13:08;;;;;;;;;;;;;;;22.74;31.23;95359.34;10301057;28;1922;-66
2023/06/14 12:18:08;;;;;;;;;;;;;;;22.73;30.77;95360.41;10302409;28;2605;-66
2023/06/14 12:23:08;;;;;;;;;;;;;;;22.73;30.67;95363.81;10287214;28;2106;-66
2023/06/14 12:28:09;;;;;;;;;;;;;;;22.76;31.11;95354.53;10297653;28;1961;-66
2023/06/14 12:33:09;;;;;;;;;;;;;;;22.78;31.27;95355.81;10301300;28;2003;-65
2023/06/14 12:38:09;;;;;;;;;;;;;;;22.76;30.80;95346.59;10285809;28;2136;-66
2023/06/14 12:43:10;;;;;;;;;;;;;;;22.75;30.68;95352.97;10297157;28;4590;-66
2023/06/14 12:48:10;;;;;;;;;;;;;;;22.77;30.46;95353.47;10297197;28;1953;-63
2023/06/14 12:53:11;;;;;;;;;;;;;;;22.76;30.75;95357.16;10297664;28;1920;-65
2023/06/14 12:58:14;;;;;;;;;;;;;;;22.78;30.92;95355.00;10302885;28;2300;-63
2023/06/14 13:03:14;;;;;;;;;;;;;;;22.79;30.72;95361.88;10298960;28;1954;-65
2023/06/14 13:08:15;;;;;;;;;;;;;;;22.78;30.44;95355.81;10298980;28;2017;-65
2023/06/14 13:13:15;;;;;;;;;;;;;;;22.82;31.04;95358.63;10295332;28;2310;-65
2023/06/14 13:18:16;;;;;;;;;;;;;;;22.81;30.71;95362.38;10296685;28;1953;-65
2023/06/14 13:23:16;;;;;;;;;;;;;;;22.81;30.79;95360.50;10308370;28;2013;-64
2023/06/14 13:28:16;;;;;;;;;;;;;;;22.81;30.45;95352.59;10308183;28;1915;-65
2023/06/14 13:33:16;;;;;;;;;;;;;;;22.80;30.55;95358.13;10308105;28;1969;-65
2023/06/14 13:38:17;;;;;;;;;;;;;;;22.81;30.82;95351.78;10309869;28;1921;-64
2023/06/14 13:43:17;;;;;;;;;;;;;;;22.82;30.98;95346.19;10303423;28;4207;-65
2023/06/14 13:48:18;;;;;;;;;;;;;;;22.82;30.79;95340.13;10307257;28;2001;-65
2023/06/14 13:53:18;;;;;;;;;;;;;;;22.80;30.69;95348.34;10305843;28;1957;-64
2023/06/14 13:58:19;;;;;;;;;;;;;;;22.79;30.56;95343.38;10308819;28;1913;-64
2023/06/14 14:03:19;;;;;;;;;;;;;;;22.78;30.18;95355.00;10293276;28;2111;-64
2023/06/14 14:08:19;;;;;;;;;;;;;;;22.77;30.05;95343.69;10310384;28;2321;-64
2023/06/14 14:13:21;;;;;;;;;;;;;;;22.78;30.28;95339.16;10304710;28;1991;-64
2023/06/14 14:18:21;;;;;;;;;;;;;;;22.81;30.60;95343.88;10300864;28;2036;-64
2023/06/14 14:23:21;;;;;;;;;;;;;;;22.80;30.32;95342.28;10306671;28;1985;-64
2023/06/14 14:28:22;;;;;;;;;;;;;;;22.79;30.19;95349.47;10308607;28;1945;-64
2023/06/14 14:33:22;;;;;;;;;;;;;;;22.78;30.32;95347.88;10302759;28;1962;-64
2023/06/14 14:38:22;;;;;;;;;;;;;;;22.80;30.41;95339.66;10302259;28;1982;-63
2023/06/14 14:43:22;;;;;;;;;;;;;;;22.80;30.11;95348.34;10302768;28;4518;-63
2023/06/14 14:48:23;;;;;;;;;;;;;;;22.83;30.29;95347.78;10299970;28;2012;-64
2023/06/14 14:53:23;;;;;;;;;;;;;;;22.82;30.63;95342.78;10299616;28;2021;-63
2023/06/14 14:58:23;;;;;;;;;;;;;;;22.82;30.54;95355.97;10307377;28;1895;-61
2023/06/14 15:03:24;;;;;;;;;;;;;;;22.82;30.37;95353.34;10306935;28;1952;-63
2023/06/14 15:08:24;;;;;;;;;;;;;;;22.80;30.06;95360.78;10304429;28;1886;-63
2023/06/14 15:13:24;;;;;;;;;;;;;;;22.79;30.24;95354.75;10313044;28;1854;-63
2023/06/14 15:18:25;;;;;;;;;;;;;;;22.79;30.18;95352.09;10308093;28;1895;-63
2023/06/14 15:23:25;;;;;;;;;;;;;;;22.80;30.39;95358.13;10301901;28;1961;-64
2023/06/14 15:28:28;;;;;;;;;;;;;;;22.80;30.05;95355.50;10300180;28;1840;-64
2023/06/14 15:33:28;;;;;;;;;;;;;;;22.79;30.30;95357.38;10300267;28;1955;-64
2023/06/14 15:38:29;;;;;;;;;;;;;;;22.80;30.17;95358.13;10303727;28;2012;-64
2023/06/14 15:43:29;;;;;;;;;;;;;;;22.80;30.46;95358.94;10298295;28;4500;-64
2023/06/14 15:48:30;;;;;;;;;;;;;;;22.81;30.53;95355.22;10299543;28;1969;-64
2023/06/14 15:53:30;;;;;;;;;;;;;;;22.84;30.58;95359.13;10301986;28;1934;-64
2023/06/14 15:58:30;;;;;;;;;;;;;;;22.86;30.56;95356.94;10301545;28;1900;-65
2023/06/14 16:03:30;;;;;;;;;;;;;;;22.88;31.05;95365.38;10306147;28;2221;-66
2023/06/14 16:08:31;;;;;;;;;;;;;;;22.89;30.98;95357.16;10302780;28;1899;-68
2023/06/14 16:13:31;;;;;;;;;;;;;;;22.90;30.96;95368.50;10303348;28;1894;-67
2023/06/14 16:18:31;;;;;;;;;;;;;;;22.90;30.89;95366.63;10302924;28;1933;-64
2023/06/14 16:23:32;;;;;;;;;;;;;;;22.90;30.65;95365.84;10300478;28;1960;-63
2023/06/14 16:28:32;;;;;;;;;;;;;;;22.89;30.76;95372.22;10296434;28;2049;-64
2023/06/14 16:33:32;;;;;;;;;;;;;;;22.88;30.81;95374.09;10299980;28;1878;-65
2023/06/14 16:38:32;;;;;;;;;;;;;;;22.89;30.84;95380.16;10295146;28;1968;-64
2023/06/14 16:43:33;;;;;;;;;;;;;;;22.87;30.77;95380.47;10294294;28;4558;-64
2023/06/14 16:48:33;;;;;;;;;;;;;;;22.89;30.56;95385.44;10302522;28;1964;-64
2023/06/14 16:53:33;;;;;;;;;;;;;;;22.89;31.04;95386.22;10304609;28;2066;-64
2023/06/14 16:58:33;;;;;;;;;;;;;;;22.91;30.98;95396.50;10302587;28;2431;-62
2023/06/14 17:03:34;;;;;;;;;;;;;;;22.90;30.95;95400.22;10297375;28;2007;-63
2023/06/14 17:08:34;;;;;;;;;;;;;;;22.91;30.95;95401.78;10297807;28;1889;-63
2023/06/14 17:13:34;;;;;;;;;;;;;;;22.90;30.98;95416.06;10301318;28;1937;-62
2023/06/14 17:18:35;;;;;;;;;;;;;;;22.88;30.92;95410.28;10297640;28;2025;-64
2023/06/14 17:23:35;;;;;;;;;;;;;;;22.87;31.00;95419.31;10298656;28;1968;-63
2023/06/14 17:28:36;;;;;;;;;;;;;;;22.86;30.98;95421.16;10293981;28;2085;-63
2023/06/14 17:33:36;;;;;;;;;;;;;;;22.85;30.82;95416.97;10306411;28;2000;-63
2023/06/14 17:38:36;;;;;;;;;;;;;;;22.84;31.00;95430.47;10289587;28;2030;-64
2023/06/14 17:43:36;;;;;;;;;;;;;;;22.85;31.20;95437.34;10296690;28;4412;-63
2023/06/14 17:48:37;;;;;;;;;;;;;;;22.84;31.14;95439.19;10294839;28;1932;-63
2023/06/14 17:53:37;;;;;;;;;;;;;;;22.86;31.38;95447.59;10296645;28;2253;-62
2023/06/14 17:58:37;;;;;;;;;;;;;;;22.86;31.78;95452.88;10299971;28;1961;-62
2023/06/14 18:03:38;;;;;;;;;;;;;;;22.86;31.71;95458.16;10302286;28;2008;-63
2023/06/14 18:08:38;;;;;;;;;;;;;;;22.86;31.67;95460.03;10302933;28;2001;-63
2023/06/14 18:13:38;;;;;;;;;;;;;;;22.86;31.49;95457.38;10305405;28;2016;-63
2023/06/14 18:18:40;;;;;;;;;;;;;;;22.85;31.54;95463.75;10304345;28;1894;-63
2023/06/14 18:23:40;;;;;;;;;;;;;;;22.84;31.55;95470.09;10299909;28;2417;-62
2023/06/14 18:28:41;;;;;;;;;;;;;;;22.83;31.57;95469.34;10303733;28;2032;-62
2023/06/14 18:33:41;;;;;;;;;;;;;;;22.82;31.48;95462.47;10308297;28;1973;-62
2023/06/14 18:38:41;;;;;;;;;;;;;;;22.81;31.34;95482.06;10304646;28;2044;-62
2023/06/14 18:43:42;;;;;;;;;;;;;;;22.81;31.65;95483.94;10306398;28;4496;-63
2023/06/14 18:48:43;;;;;;;;;;;;;;;22.81;31.63;95486.56;10302381;28;2364;-63
2023/06/14 18:53:43;;;;;;;;;;;;;;;22.81;31.71;95494.50;10299405;28;1946;-62
2023/06/14 18:58:43;;;;;;;;;;;;;;;22.80;31.86;95493.69;10298828;28;1921;-63
2023/06/14 19:03:44;;;;;;;;;;;;;;;22.81;31.88;95494.50;10302132;28;1954;-63
2023/06/14 19:08:46;;;;;;;;;;;;;;;22.82;31.85;95503.97;10301780;28;1884;-63
2023/06/14 19:13:47;;;;;;;;;;;;;;;22.81;31.98;95508.50;10290247;28;2403;-63
2023/06/14 19:18:47;;;;;;;;;;;;;;;22.81;32.04;95513.78;10299050;28;1965;-63
2023/06/14 19:23:49;;;;;;;;;;;;;;;22.81;32.02;95518.28;10301186;28;2008;-63
2023/06/14 19:28:49;;;;;;;;;;;;;;;22.80;32.08;95521.97;10301386;28;1913;-63
2023/06/14 19:33:49;;;;;;;;;;;;;;;22.80;32.03;95521.97;10305019;28;1930;-63
2023/06/14 19:38:50;;;;;;;;;;;;;;;22.79;31.98;95533.66;10301187;28;2131;-63
2023/06/14 19:43:50;;;;;;;;;;;;;;;22.80;32.06;95540.47;10302257;28;4495;-64
2023/06/14 19:48:50;;;;;;;;;;;;;;;22.80;31.91;95545.78;10306815;28;2073;-63
2023/06/14 19:53:51;;;;;;;;;;;;;;;22.79;32.14;95560.06;10301039;28;1995;-63
2023/06/14 19:58:51;;;;;;;;;;;;;;;22.78;32.20;95561.13;10300355;28;1961;-65
2023/06/14 20:03:51;;;;;;;;;;;;;;;22.78;32.06;95558.50;10298160;28;1974;-66
2023/06/14 20:08:52;;;;;;;;;;;;;;;22.78;32.28;95555.84;10295731;28;2012;-63
2023/06/14 20:13:52;;;;;;;;;;;;;;;22.80;32.75;95566.91;10300260;28;1972;-61
2023/06/14 20:18:53;;;;;;;;;;;;;;;22.80;32.92;95561.63;10295885;28;1930;-65
2023/06/14 20:23:53;;;;;;;;;;;;;;;22.80;33.02;95565.06;10303205;28;1895;-63
2023/06/14 20:28:54;;;;;;;;;;;;;;;22.81;33.23;95560.56;10285566;28;2251;-63
2023/06/14 20:33:54;;;;;;;;;;;;;;;22.83;33.51;95558.41;10304540;28;1870;-63
2023/06/14 20:38:55;;;;;;;;;;;;;;;22.84;33.21;95557.31;10299709;28;1946;-63
2023/06/14 20:43:57;;;;;;;;;;;;;;;22.84;33.56;95559.97;10303245;28;2000;-64
2023/06/14 20:48:57;;;;;;;;;;;;;;;22.84;33.55;95566.03;10302592;28;2001;-63
2023/06/14 20:53:57;;;;;;;;;;;;;;;22.85;33.47;95561.53;10301612;28;2029;-63
2023/06/14 20:58:58;;;;;;;;;;;;;;;22.85;33.68;95569.47;10299051;28;2031;-63
2023/06/14 21:03:58;;;;;;;;;;;;;;;22.84;33.90;95565.25;10298638;28;1910;-63
2023/06/14 21:08:58;;;;;;;;;;;;;;;22.84;33.69;95560.75;10296987;28;1985;-63
2023/06/14 21:13:58;;;;;;;;;;;;;;;22.85;33.93;95569.47;10304399;28;1893;-63
2023/06/14 21:18:59;;;;;;;;;;;;;;;22.84;33.95;95566.03;10307839;28;1891;-63
2023/06/14 21:23:59;;;;;;;;;;;;;;;22.84;33.84;95567.88;10309005;28;1956;-63
2023/06/14 21:29:01;;;;;;;;;;;;;;;22.83;34.05;95567.13;10292592;28;1995;-63
2023/06/14 21:34:01;;;;;;;;;;;;;;;22.84;34.12;95562.59;10284592;28;2082;-63
2023/06/14 21:39:01;;;;;;;;;;;;;;;22.82;34.09;95570.84;10298041;28;2371;-63
2023/06/14 21:44:01;;;;;;;;;;;;;;;22.83;33.89;95568.97;10310910;28;4530;-63
2023/06/14 21:49:02;;;;;;;;;;;;;;;22.82;33.90;95572.69;10311367;28;1946;-64
2023/06/14 21:54:02;;;;;;;;;;;;;;;22.83;33.88;95574.28;10303647;28;1977;-64
2023/06/14 21:59:02;;;;;;;;;;;;;;;22.82;33.94;95578.75;10306786;28;1946;-63
2023/06/14 22:04:03;;;;;;;;;;;;;;;22.81;34.11;95582.50;10303184;28;2004;-63
2023/06/14 22:09:04;;;;;;;;;;;;;;;22.81;34.04;95571.13;10308248;28;2000;-63
2023/06/14 22:14:04;;;;;;;;;;;;;;;22.80;34.02;95577.47;10299009;28;2189;-63
2023/06/14 22:19:04;;;;;;;;;;;;;;;22.81;33.91;95573.78;10297564;28;1954;-63
2023/06/14 22:24:05;;;;;;;;;;;;;;;22.81;33.99;95577.22;10306267;28;2211;-63
2023/06/14 22:29:06;;;;;;;;;;;;;;;22.80;34.25;95577.47;10290097;28;1987;-64
2023/06/14 22:34:07;;;;;;;;;;;;;;;22.79;34.34;95568.00;10301289;28;2245;-63
2023/06/14 22:39:08;;;;;;;;;;;;;;;22.79;34.07;95575.94;10302650;28;1912;-64
2023/06/14 22:44:08;;;;;;;;;;;;;;;22.79;34.21;95568.78;10301217;28;4511;-63
2023/06/14 22:49:09;;;;;;;;;;;;;;;22.79;34.14;95568.00;10284387;28;2110;-63
2023/06/14 22:54:09;;;;;;;;;;;;;;;22.78;34.44;95561.91;10301921;28;1957;-63
2023/06/14 22:59:10;;;;;;;;;;;;;;;22.79;34.49;95565.34;10296591;28;1959;-63
2023/06/14 23:04:11;;;;;;;;;;;;;;;22.79;34.44;95560.88;10299126;28;2209;-63
2023/06/14 23:09:11;;;;;;;;;;;;;;;22.79;34.47;95563.50;10301095;28;1886;-63
2023/06/14 23:14:13;;;;;;;;;;;;;;;22.79;34.28;95557.44;10306780;28;1991;-63
2023/06/14 23:19:14;;;;;;;;;;;;;;;22.78;34.42;95556.63;10306068;28;1998;-64
2023/06/14 23:24:14;;;;;;;;;;;;;;;22.79;34.52;95560.88;10302739;28;2113;-62
2023/06/14 23:29:18;;;;;;;;;;;;;;;22.80;34.53;95558.97;10302232;28;1968;-63
2023/06/14 23:34:19;;;;;;;;;;;;;;;22.79;34.62;95560.06;10300832;28;2032;-64
2023/06/14 23:39:21;;;;;;;;;;;;;;;22.80;34.60;95558.97;10301344;28;2041;-63
2023/06/14 23:44:21;;;;;;;;;;;;;;;22.80;34.42;95557.13;10304109;28;4562;-63
2023/06/14 23:49:24;;;;;;;;;;;;;;;22.81;34.68;95556.06;10295938;28;2048;-63
2023/06/14 23:54:25;;;;;;;;;;;;;;;22.82;34.83;95546.25;10292099;28;2034;-63
2023/06/14 23:59:26;;;;;;;;;;;;;;;22.81;34.76;95556.06;10306189;28;1917;-63
